createdAt,value
2023-01-29T00:00:14.253Z,46.48
2023-01-29T00:02:44.258Z,46.67
2023-01-29T00:05:26.893Z,46.65
2023-01-29T00:07:56.035Z,46.55
2023-01-29T00:10:25.193Z,46.56
2023-01-29T00:12:53.848Z,46.52
2023-01-29T00:15:22.431Z,46.71
2023-01-29T00:17:52.313Z,46.57
2023-01-29T00:20:20.824Z,46.69
2023-01-29T00:22:49.520Z,46.66
2023-01-29T00:25:18.239Z,46.53
2023-01-29T00:27:46.845Z,46.66
2023-01-29T00:30:19.242Z,46.63
2023-01-29T00:32:48.171Z,46.78
2023-01-29T00:35:18.254Z,46.50
2023-01-29T00:37:46.709Z,46.71
2023-01-29T00:40:15.746Z,46.75
2023-01-29T00:43:05.439Z,46.71
2023-01-29T00:45:34.023Z,46.71
2023-01-29T00:48:02.641Z,46.56
2023-01-29T00:50:33.169Z,46.65
2023-01-29T00:53:01.578Z,46.54
2023-01-29T00:55:30.068Z,46.64
2023-01-29T00:57:58.426Z,46.47
2023-01-29T01:00:26.830Z,46.80
2023-01-29T01:03:06.239Z,46.80
2023-01-29T01:05:36.811Z,46.75
2023-01-29T01:08:27.615Z,46.64
2023-01-29T01:10:59.953Z,46.72
2023-01-29T01:13:28.891Z,46.82
2023-01-29T01:15:58.857Z,46.64
2023-01-29T01:18:30.986Z,46.73
2023-01-29T01:21:00.777Z,46.57
2023-01-29T01:23:29.320Z,46.80
2023-01-29T01:25:58.084Z,46.64
2023-01-29T01:28:26.765Z,46.66
2023-01-29T01:30:55.951Z,46.79
2023-01-29T01:33:24.780Z,46.58
2023-01-29T01:35:53.192Z,46.75
2023-01-29T01:38:24.277Z,46.80
2023-01-29T01:40:52.797Z,46.83
2023-01-29T01:43:21.864Z,46.66
2023-01-29T01:45:50.430Z,46.77
2023-01-29T01:48:22.698Z,46.74
2023-01-29T01:50:54.110Z,46.79
2023-01-29T01:53:34.511Z,46.75
2023-01-29T01:56:06.406Z,46.74
2023-01-29T01:58:41.445Z,46.81
2023-01-29T02:01:11.625Z,46.70
2023-01-29T02:04:02.775Z,46.89
2023-01-29T02:06:49.706Z,46.67
2023-01-29T02:09:32.593Z,46.74
2023-01-29T02:12:01.980Z,46.73
2023-01-29T02:14:31.995Z,46.76
2023-01-29T02:17:01.777Z,46.75
2023-01-29T02:19:41.138Z,46.94
2023-01-29T02:22:36.631Z,46.62
2023-01-29T02:25:19.147Z,46.84
2023-01-29T02:28:14.310Z,46.86
2023-01-29T02:30:49.162Z,46.67
2023-01-29T02:33:27.500Z,46.79
2023-01-29T02:36:00.619Z,46.72
2023-01-29T02:38:37.513Z,46.85
2023-01-29T02:41:14.455Z,46.86
2023-01-29T02:43:47.637Z,46.92
2023-01-29T02:46:24.425Z,46.82
2023-01-29T02:49:00.281Z,46.77
2023-01-29T02:51:35.354Z,47.02
2023-01-29T02:54:08.562Z,46.81
2023-01-29T02:56:45.076Z,46.71
2023-01-29T02:59:19.620Z,46.76
2023-01-29T03:01:52.744Z,46.73
2023-01-29T03:04:26.928Z,46.73
2023-01-29T03:07:01.805Z,46.84
2023-01-29T03:09:34.665Z,46.70
2023-01-29T03:12:19.987Z,46.92
2023-01-29T03:15:10.201Z,46.70
2023-01-29T03:17:43.211Z,46.82
2023-01-29T03:20:17.650Z,46.72
2023-01-29T03:22:54.049Z,46.72
2023-01-29T03:25:43.030Z,46.72
2023-01-29T03:28:31.953Z,46.80
2023-01-29T03:31:23.310Z,46.87
2023-01-29T03:34:04.222Z,46.91
2023-01-29T03:36:39.848Z,46.88
2023-01-29T03:39:11.459Z,46.71
2023-01-29T03:41:47.623Z,46.96
2023-01-29T03:44:20.281Z,46.71
2023-01-29T03:46:57.334Z,46.93
2023-01-29T03:49:33.346Z,46.92
2023-01-29T03:52:10.578Z,46.99
2023-01-29T03:54:48.601Z,46.84
2023-01-29T03:57:26.349Z,47.00
2023-01-29T04:00:01.688Z,46.83
2023-01-29T04:02:53.770Z,46.88
2023-01-29T04:05:25.756Z,46.83
2023-01-29T04:08:18.277Z,47.04
2023-01-29T04:10:50.545Z,46.85
2023-01-29T04:13:20.738Z,47.00
2023-01-29T04:15:55.369Z,46.79
2023-01-29T04:18:46.111Z,46.75
2023-01-29T04:21:15.906Z,46.70
2023-01-29T04:23:45.535Z,46.79
2023-01-29T04:26:35.072Z,46.76
2023-01-29T04:29:21.682Z,46.89
2023-01-29T04:31:56.656Z,46.85
2023-01-29T04:34:30.159Z,46.67
2023-01-29T04:37:07.635Z,46.80
2023-01-29T04:39:46.755Z,47.00
2023-01-29T04:42:22.470Z,46.88
2023-01-29T04:45:00.048Z,46.91
2023-01-29T04:47:37.177Z,46.85
2023-01-29T04:50:17.922Z,46.90
2023-01-29T04:52:54.416Z,46.75
2023-01-29T04:55:30.404Z,46.96
2023-01-29T04:58:07.666Z,46.77
2023-01-29T05:00:41.796Z,46.80
2023-01-29T05:03:13.094Z,46.87
2023-01-29T05:05:46.428Z,46.85
2023-01-29T05:08:18.771Z,46.88
2023-01-29T05:10:48.807Z,46.93
2023-01-29T05:13:19.202Z,46.88
2023-01-29T05:15:52.914Z,46.83
2023-01-29T05:18:21.850Z,46.89
2023-01-29T05:20:52.576Z,46.96
2023-01-29T05:23:23.243Z,46.97
2023-01-29T05:25:52.759Z,46.81
2023-01-29T05:28:20.258Z,46.88
2023-01-29T05:30:50.266Z,46.77
2023-01-29T05:33:21.085Z,46.90
2023-01-29T05:35:51.608Z,46.97
2023-01-29T05:38:20.566Z,46.93
2023-01-29T05:40:49.662Z,46.95
2023-01-29T05:43:20.027Z,46.89
2023-01-29T05:45:53.871Z,46.86
2023-01-29T05:48:22.704Z,46.77
2023-01-29T05:50:52.888Z,46.80
2023-01-29T05:53:21.657Z,46.85
2023-01-29T05:55:50.276Z,46.74
2023-01-29T05:58:19.693Z,46.97
2023-01-29T06:00:48.189Z,46.77
2023-01-29T06:03:16.925Z,46.93
2023-01-29T06:05:45.459Z,46.71
2023-01-29T06:08:15.312Z,46.83
2023-01-29T06:10:43.693Z,46.83
2023-01-29T06:13:12.168Z,46.78
2023-01-29T06:15:41.024Z,46.75
2023-01-29T06:18:09.446Z,46.80
2023-01-29T06:20:38.093Z,46.80
2023-01-29T06:23:06.806Z,46.87
2023-01-29T06:25:36.639Z,46.85
2023-01-29T06:28:05.507Z,46.78
2023-01-29T06:30:34.412Z,46.77
2023-01-29T06:33:02.945Z,47.03
2023-01-29T06:35:31.529Z,47.01
2023-01-29T06:37:59.981Z,46.83
2023-01-29T06:40:28.451Z,46.95
2023-01-29T06:42:58.158Z,46.60
2023-01-29T06:45:26.618Z,46.81
2023-01-29T06:47:55.090Z,46.90
2023-01-29T06:50:23.653Z,46.70
2023-01-29T06:52:52.103Z,46.85
2023-01-29T06:55:20.546Z,46.88
2023-01-29T06:57:48.986Z,46.85
2023-01-29T07:00:20.490Z,46.77
2023-01-29T07:02:50.317Z,46.87
2023-01-29T07:05:19.029Z,46.90
2023-01-29T07:07:47.478Z,46.90
2023-01-29T07:10:16.909Z,47.02
2023-01-29T07:12:45.604Z,46.84
2023-01-29T07:15:15.083Z,46.95
2023-01-29T07:17:44.904Z,46.89
2023-01-29T07:20:13.634Z,47.09
2023-01-29T07:22:42.121Z,46.82
2023-01-29T07:25:10.929Z,46.94
2023-01-29T07:27:39.329Z,46.94
2023-01-29T07:30:09.592Z,47.06
2023-01-29T07:32:38.095Z,46.89
2023-01-29T07:35:08.801Z,46.82
2023-01-29T07:37:37.426Z,46.99
2023-01-29T07:40:11.108Z,46.82
2023-01-29T07:42:42.205Z,46.98
2023-01-29T07:45:12.099Z,46.84
2023-01-29T07:47:40.617Z,46.99
2023-01-29T07:50:11.766Z,46.84
2023-01-29T07:52:40.245Z,46.68
2023-01-29T07:55:09.425Z,46.97
2023-01-29T07:57:38.035Z,47.02
2023-01-29T08:00:07.222Z,47.02
2023-01-29T08:02:41.157Z,47.19
2023-01-29T08:05:11.405Z,47.08
2023-01-29T08:07:40.000Z,47.06
2023-01-29T08:10:09.301Z,47.13
2023-01-29T08:12:37.781Z,46.90
2023-01-29T08:15:06.965Z,47.02
2023-01-29T08:17:36.884Z,47.08
2023-01-29T08:20:12.950Z,47.14
2023-01-29T08:22:41.403Z,47.27
2023-01-29T08:25:10.328Z,47.13
2023-01-29T08:27:39.176Z,47.05
2023-01-29T08:30:08.998Z,46.85
2023-01-29T08:32:37.668Z,47.02
2023-01-29T08:35:06.897Z,47.12
2023-01-29T08:37:36.839Z,47.02
2023-01-29T08:40:06.198Z,47.03
2023-01-29T08:42:34.674Z,46.76
2023-01-29T08:45:03.107Z,47.03
2023-01-29T08:47:31.683Z,47.17
2023-01-29T08:50:00.185Z,46.98
2023-01-29T08:52:28.656Z,47.09
2023-01-29T08:54:58.493Z,47.02
2023-01-29T08:57:26.949Z,47.11
2023-01-29T08:59:55.429Z,47.19
2023-01-29T09:02:23.887Z,47.15
2023-01-29T09:04:52.396Z,47.13
2023-01-29T09:07:21.765Z,47.05
2023-01-29T09:09:50.417Z,47.08
2023-01-29T09:12:20.277Z,47.07
2023-01-29T09:14:48.732Z,47.03
2023-01-29T09:17:17.194Z,47.10
2023-01-29T09:19:45.772Z,47.10
2023-01-29T09:22:14.316Z,47.04
2023-01-29T09:24:42.851Z,47.16
2023-01-29T09:27:11.800Z,47.12
2023-01-29T09:29:41.673Z,47.11
2023-01-29T09:32:10.186Z,47.15
2023-01-29T09:34:38.626Z,47.05
2023-01-29T09:37:07.483Z,47.25
2023-01-29T09:39:36.061Z,47.02
2023-01-29T09:42:11.699Z,46.98
2023-01-29T09:44:52.957Z,47.12
2023-01-29T09:47:25.013Z,46.89
2023-01-29T09:49:58.318Z,47.25
2023-01-29T09:52:29.325Z,47.27
2023-01-29T09:55:04.332Z,47.29
2023-01-29T09:57:40.230Z,47.23
2023-01-29T10:00:16.489Z,46.99
2023-01-29T10:03:01.422Z,47.19
2023-01-29T10:05:52.531Z,47.27
2023-01-29T10:08:45.722Z,47.16
2023-01-29T10:11:27.384Z,47.20
2023-01-29T10:14:05.702Z,47.23
2023-01-29T10:16:50.751Z,46.98
2023-01-29T10:19:47.791Z,47.16
2023-01-29T10:22:35.366Z,47.20
2023-01-29T10:25:05.702Z,47.18
2023-01-29T10:27:35.705Z,47.30
2023-01-29T10:30:10.043Z,47.27
2023-01-29T10:32:39.843Z,47.13
2023-01-29T10:35:21.201Z,47.17
2023-01-29T10:37:53.169Z,47.19
2023-01-29T10:40:23.799Z,47.02
2023-01-29T10:42:59.713Z,47.29
2023-01-29T10:45:36.301Z,47.22
2023-01-29T10:48:35.378Z,47.25
2023-01-29T10:51:16.277Z,47.12
2023-01-29T10:53:55.130Z,47.29
2023-01-29T10:56:41.117Z,47.18
2023-01-29T10:59:27.521Z,47.13
2023-01-29T11:01:58.999Z,47.34
2023-01-29T11:04:31.264Z,47.23
2023-01-29T11:07:01.062Z,46.36
2023-01-29T11:09:35.488Z,45.78
2023-01-29T11:12:11.306Z,44.71
2023-01-29T11:14:45.585Z,43.59
2023-01-29T11:17:18.909Z,43.20
2023-01-29T11:19:51.995Z,42.86
2023-01-29T11:22:23.958Z,42.07
2023-01-29T11:25:11.574Z,41.62
2023-01-29T11:27:45.450Z,41.51
2023-01-29T11:30:22.835Z,40.47
2023-01-29T11:32:56.945Z,40.05
2023-01-29T11:35:26.950Z,39.72
2023-01-29T11:38:08.232Z,39.88
2023-01-29T11:40:42.601Z,38.88
2023-01-29T11:43:18.912Z,37.81
2023-01-29T11:45:48.925Z,35.90
2023-01-29T11:48:19.724Z,35.57
2023-01-29T11:50:56.165Z,37.43
2023-01-29T11:53:39.781Z,36.30
2023-01-29T11:56:21.635Z,36.68
2023-01-29T11:58:52.886Z,34.86
2023-01-29T12:01:33.030Z,36.33
2023-01-29T12:04:02.077Z,36.17
2023-01-29T12:06:36.571Z,33.93
2023-01-29T12:09:11.874Z,33.59
2023-01-29T12:11:40.465Z,33.82
2023-01-29T12:14:27.863Z,34.49
2023-01-29T12:17:02.392Z,34.82
2023-01-29T12:19:37.961Z,34.99
2023-01-29T12:22:16.360Z,35.32
2023-01-29T12:24:53.596Z,35.67
2023-01-29T12:27:26.232Z,35.94
2023-01-29T12:30:01.804Z,36.03
2023-01-29T12:32:36.903Z,36.53
2023-01-29T12:35:14.018Z,37.24
2023-01-29T12:37:53.755Z,37.94
2023-01-29T12:40:26.168Z,38.18
2023-01-29T12:43:02.470Z,38.58
2023-01-29T12:45:33.370Z,38.69
2023-01-29T12:48:06.671Z,38.77
2023-01-29T12:50:38.480Z,38.90
2023-01-29T12:53:21.900Z,39.23
2023-01-29T12:55:55.527Z,39.35
2023-01-29T12:58:30.438Z,39.24
2023-01-29T13:01:06.067Z,39.38
2023-01-29T13:03:46.409Z,39.62
2023-01-29T13:06:18.946Z,39.76
2023-01-29T13:08:53.742Z,39.77
2023-01-29T13:11:27.738Z,40.09
2023-01-29T13:14:00.262Z,40.20
2023-01-29T13:16:34.357Z,40.22
2023-01-29T13:19:04.505Z,40.28
2023-01-29T13:21:38.970Z,40.29
2023-01-29T13:24:14.118Z,40.48
2023-01-29T13:26:46.416Z,40.47
2023-01-29T13:29:24.120Z,40.67
2023-01-29T13:31:55.032Z,40.65
2023-01-29T13:34:28.357Z,40.64
2023-01-29T13:37:00.101Z,40.98
2023-01-29T13:39:31.502Z,40.84
2023-01-29T13:42:02.231Z,40.98
2023-01-29T13:44:34.842Z,40.95
2023-01-29T13:47:06.455Z,41.03
2023-01-29T13:49:38.561Z,41.07
2023-01-29T13:52:22.705Z,41.20
2023-01-29T13:54:57.281Z,41.16
2023-01-29T13:57:50.412Z,41.33
2023-01-29T14:00:50.203Z,41.29
2023-01-29T14:04:03.744Z,41.46
2023-01-29T14:06:51.815Z,41.54
2023-01-29T14:09:59.518Z,41.40
2023-01-29T14:12:41.612Z,41.49
2023-01-29T14:15:31.421Z,41.66
2023-01-29T14:18:06.860Z,41.56
2023-01-29T14:20:45.736Z,41.71
2023-01-29T14:23:25.310Z,41.73
2023-01-29T14:25:53.934Z,41.82
2023-01-29T14:28:27.105Z,41.89
2023-01-29T14:30:57.293Z,41.87
2023-01-29T14:33:29.508Z,41.79
2023-01-29T14:35:59.171Z,41.87
2023-01-29T14:38:30.055Z,41.94
2023-01-29T14:41:13.341Z,41.99
2023-01-29T14:43:43.217Z,41.93
2023-01-29T14:46:44.089Z,42.07
2023-01-29T14:49:12.714Z,42.08
2023-01-29T14:51:45.333Z,41.99
2023-01-29T14:54:26.288Z,42.24
2023-01-29T14:57:00.387Z,42.62
2023-01-29T14:59:37.417Z,42.44
2023-01-29T15:02:17.594Z,42.40
2023-01-29T15:04:48.706Z,42.27
2023-01-29T15:07:28.073Z,42.18
2023-01-29T15:10:20.991Z,42.26
2023-01-29T15:12:53.905Z,42.37
2023-01-29T15:15:36.227Z,42.37
2023-01-29T15:18:09.158Z,42.35
2023-01-29T15:20:38.914Z,42.29
2023-01-29T15:23:26.307Z,42.27
2023-01-29T15:25:57.888Z,42.20
2023-01-29T15:28:27.753Z,42.24
2023-01-29T15:30:59.300Z,42.33
2023-01-29T15:33:28.903Z,42.14
2023-01-29T15:36:07.399Z,42.26
2023-01-29T15:38:36.565Z,42.33
2023-01-29T15:41:18.458Z,42.37
2023-01-29T15:43:49.321Z,42.23
2023-01-29T15:46:25.305Z,42.44
2023-01-29T15:48:55.934Z,42.28
2023-01-29T15:51:27.313Z,41.80
2023-01-29T15:53:57.942Z,41.30
2023-01-29T15:56:29.067Z,40.59
2023-01-29T15:59:02.014Z,40.37
2023-01-29T16:01:33.487Z,39.76
2023-01-29T16:04:03.724Z,39.58
2023-01-29T16:06:38.733Z,39.62
2023-01-29T16:09:08.283Z,39.97
2023-01-29T16:11:37.177Z,40.32
2023-01-29T16:14:07.458Z,40.31
2023-01-29T16:16:37.646Z,40.44
2023-01-29T16:19:15.070Z,40.45
2023-01-29T16:21:45.903Z,40.60
2023-01-29T16:24:22.364Z,40.74
2023-01-29T16:26:52.582Z,40.77
2023-01-29T16:29:23.499Z,40.83
2023-01-29T16:32:00.534Z,41.07
2023-01-29T16:34:32.988Z,41.43
2023-01-29T16:37:03.875Z,41.44
2023-01-29T16:39:35.426Z,41.75
2023-01-29T16:42:21.890Z,41.70
2023-01-29T16:44:56.320Z,41.68
2023-01-29T16:47:30.511Z,41.90
2023-01-29T16:50:00.647Z,41.89
2023-01-29T16:52:31.876Z,41.84
2023-01-29T16:55:03.237Z,41.91
2023-01-29T16:57:34.735Z,41.88
2023-01-29T17:00:08.897Z,42.18
2023-01-29T17:02:40.225Z,42.28
2023-01-29T17:05:18.657Z,42.04
2023-01-29T17:07:47.826Z,42.16
2023-01-29T17:10:19.041Z,42.16
2023-01-29T17:12:54.514Z,42.14
2023-01-29T17:15:33.462Z,42.19
2023-01-29T17:18:03.721Z,42.37
2023-01-29T17:20:32.946Z,42.33
2023-01-29T17:23:01.566Z,42.31
2023-01-29T17:25:30.351Z,42.28
2023-01-29T17:28:01.533Z,42.33
2023-01-29T17:30:34.567Z,42.28
2023-01-29T17:33:11.911Z,42.35
2023-01-29T17:35:42.170Z,42.37
2023-01-29T17:38:24.935Z,42.23
2023-01-29T17:40:57.433Z,42.34
2023-01-29T17:43:25.857Z,42.32
2023-01-29T17:45:54.746Z,42.32
2023-01-29T17:48:26.356Z,42.11
2023-01-29T17:50:57.547Z,42.15
2023-01-29T17:53:30.512Z,42.20
2023-01-29T17:56:05.157Z,42.49
2023-01-29T17:58:33.685Z,42.27
2023-01-29T18:01:02.142Z,42.05
2023-01-29T18:03:32.046Z,42.27
2023-01-29T18:06:00.540Z,42.27
2023-01-29T18:08:32.589Z,42.31
2023-01-29T18:11:01.774Z,42.54
2023-01-29T18:13:30.332Z,42.76
2023-01-29T18:15:58.928Z,42.78
2023-01-29T18:18:27.574Z,42.56
2023-01-29T18:20:57.336Z,42.70
2023-01-29T18:23:26.246Z,42.59
2023-01-29T18:25:57.582Z,42.56
2023-01-29T18:28:26.235Z,42.67
2023-01-29T18:30:54.770Z,42.64
2023-01-29T18:33:24.156Z,42.42
2023-01-29T18:35:54.887Z,42.50
2023-01-29T18:38:25.223Z,42.43
2023-01-29T18:40:53.690Z,42.52
2023-01-29T18:43:24.987Z,43.25
2023-01-29T18:45:58.725Z,43.45
2023-01-29T18:48:27.293Z,43.83
2023-01-29T18:50:55.942Z,43.54
2023-01-29T18:53:26.013Z,43.15
2023-01-29T18:55:59.536Z,42.81
2023-01-29T18:58:36.056Z,42.88
2023-01-29T19:01:09.414Z,42.71
2023-01-29T19:03:39.050Z,42.67
2023-01-29T19:06:09.200Z,42.80
2023-01-29T19:08:39.747Z,42.84
2023-01-29T19:11:09.012Z,42.80
2023-01-29T19:13:38.369Z,41.96
2023-01-29T19:16:09.014Z,41.90
2023-01-29T19:18:37.881Z,41.75
2023-01-29T19:21:11.358Z,41.75
2023-01-29T19:23:41.319Z,41.89
2023-01-29T19:26:10.699Z,41.77
2023-01-29T19:28:39.168Z,41.86
2023-01-29T19:31:09.268Z,41.87
2023-01-29T19:33:38.863Z,41.84
2023-01-29T19:36:08.024Z,41.82
2023-01-29T19:38:38.502Z,41.97
2023-01-29T19:41:08.371Z,41.75
2023-01-29T19:43:38.149Z,41.92
2023-01-29T19:46:07.379Z,42.04
2023-01-29T19:48:35.879Z,41.75
2023-01-29T19:51:08.369Z,41.76
2023-01-29T19:53:37.324Z,42.22
2023-01-29T19:56:09.563Z,42.53
2023-01-29T19:58:38.442Z,42.82
2023-01-29T20:01:09.333Z,42.91
2023-01-29T20:03:38.043Z,42.70
2023-01-29T20:06:08.484Z,43.25
2023-01-29T20:08:37.138Z,42.95
2023-01-29T20:11:06.451Z,42.78
2023-01-29T20:13:36.714Z,43.09
2023-01-29T20:16:05.715Z,43.20
2023-01-29T20:18:34.279Z,43.50
2023-01-29T20:21:08.076Z,43.43
2023-01-29T20:23:38.701Z,43.42
2023-01-29T20:26:08.041Z,43.33
2023-01-29T20:28:37.912Z,43.27
2023-01-29T20:31:08.466Z,43.40
2023-01-29T20:33:40.369Z,43.67
2023-01-29T20:36:10.978Z,43.55
2023-01-29T20:38:39.476Z,43.54
2023-01-29T20:41:09.556Z,43.61
2023-01-29T20:43:39.412Z,43.84
2023-01-29T20:46:09.128Z,43.85
2023-01-29T20:48:38.376Z,43.71
2023-01-29T20:51:09.228Z,43.51
2023-01-29T20:53:38.478Z,43.75
2023-01-29T20:56:07.943Z,43.63
2023-01-29T20:58:37.097Z,43.62
2023-01-29T21:01:10.399Z,43.72
2023-01-29T21:03:39.188Z,43.70
2023-01-29T21:06:08.482Z,43.97
2023-01-29T21:08:37.466Z,44.05
2023-01-29T21:11:06.688Z,44.01
2023-01-29T21:13:35.643Z,44.11
2023-01-29T21:16:04.349Z,43.67
2023-01-29T21:18:34.184Z,43.53
2023-01-29T21:21:02.708Z,42.89
2023-01-29T21:23:31.455Z,42.83
2023-01-29T21:26:03.652Z,42.43
2023-01-29T21:28:32.446Z,42.30
2023-01-29T21:31:05.440Z,42.10
2023-01-29T21:33:35.459Z,42.18
2023-01-29T21:36:04.087Z,41.97
2023-01-29T21:38:32.752Z,41.97
2023-01-29T21:41:01.709Z,41.93
2023-01-29T21:43:29.399Z,41.93
2023-01-29T21:45:59.106Z,41.92
2023-01-29T21:48:28.145Z,41.77
2023-01-29T21:50:57.952Z,41.75
2023-01-29T21:53:26.405Z,41.84
2023-01-29T21:56:00.302Z,41.75
2023-01-29T21:58:28.878Z,41.72
2023-01-29T22:01:18.461Z,41.61
2023-01-29T22:03:47.402Z,41.54
2023-01-29T22:06:17.720Z,41.48
2023-01-29T22:08:46.346Z,41.44
2023-01-29T22:11:14.919Z,41.45
2023-01-29T22:13:43.393Z,41.45
2023-01-29T22:16:11.810Z,41.39
2023-01-29T22:18:40.248Z,41.33
2023-01-29T22:21:08.750Z,41.21
2023-01-29T22:23:39.314Z,41.32
2023-01-29T22:26:09.883Z,41.19
2023-01-29T22:28:38.368Z,41.29
2023-01-29T22:31:07.021Z,41.07
2023-01-29T22:33:35.492Z,41.18
2023-01-29T22:36:04.413Z,41.07
2023-01-29T22:38:32.938Z,41.07
2023-01-29T22:41:03.525Z,41.04
2023-01-29T22:43:32.043Z,41.05
2023-01-29T22:46:00.613Z,41.05
2023-01-29T22:48:30.527Z,40.79
2023-01-29T22:51:09.817Z,40.89
2023-01-29T22:53:38.982Z,40.71
2023-01-29T22:56:10.004Z,40.77
2023-01-29T22:58:39.049Z,40.84
2023-01-29T23:01:08.147Z,40.74
2023-01-29T23:03:36.665Z,40.80
2023-01-29T23:06:05.392Z,40.71
2023-01-29T23:08:34.519Z,40.62
2023-01-29T23:11:14.971Z,40.70
2023-01-29T23:13:46.462Z,40.60
2023-01-29T23:16:17.057Z,40.70
2023-01-29T23:18:46.839Z,40.58
2023-01-29T23:21:15.360Z,40.53
2023-01-29T23:23:45.130Z,40.48
2023-01-29T23:26:32.399Z,40.65
2023-01-29T23:29:03.771Z,40.50
2023-01-29T23:31:32.697Z,40.46
2023-01-29T23:34:01.142Z,40.39
2023-01-29T23:36:29.636Z,40.37
2023-01-29T23:38:58.129Z,40.46
2023-01-29T23:41:26.538Z,40.34
2023-01-29T23:43:55.068Z,40.22
2023-01-29T23:46:24.980Z,40.28
2023-01-29T23:48:53.480Z,40.34
2023-01-29T23:51:21.870Z,40.19
2023-01-29T23:53:50.265Z,40.19
2023-01-29T23:56:18.927Z,40.34
2023-01-29T23:58:47.609Z,40.23
